Rock Rapids, Iowa
Current Conditions -  °F | °C
As of 10:34 PM on Wednesday 22 Oct 2014 (Local Time) from KLYV Reporting Station
Haze Haze  
Wind Chill: 57°   Ceiling: 400
Heat Index: 57°   Visibility: 5mi
Dew Point: 54°   Wind: 9mph
Humidity: 88%   Direction: 240°WSW
Pressure: 30.03"   Gusts: NA
Location:  43.43°N, 96.18°W
Report Text: KLYV 230334Z AUTO 24008KT 5SM BR OVC004 14/12 A3003 RMK AO2
Loading
Personal Weather Stations






























Interactive Weather Map
Tropical Storm Tracking
New forecast layout! Learn more

10-Day Weather Forecast

Advertisements
Track Severe Weather on mobile